sensor_id;sensor_type;location;lat;lon;timestamp;pressure;altitude;pressure_sealevel;temperature;humidity
19576;BME280;41589;51.196;7.074;2022-12-18T00:00:42;100094.63;;;-0.93;57.92
19576;BME280;41589;51.196;7.074;2022-12-18T00:05:50;100104.72;;;-1.00;57.94
19576;BME280;41589;51.196;7.074;2022-12-18T00:10:50;100103.13;;;-1.01;58.74
19576;BME280;41589;51.196;7.074;2022-12-18T00:15:50;100107.66;;;-0.93;58.38
19576;BME280;41589;51.196;7.074;2022-12-18T00:20:51;100110.84;;;-0.91;58.50
19576;BME280;41589;51.196;7.074;2022-12-18T00:25:51;100111.72;;;-0.87;58.51
19576;BME280;41589;51.196;7.074;2022-12-18T00:31:09;100106.13;;;-0.91;57.95
19576;BME280;41589;51.196;7.074;2022-12-18T00:36:17;100104.97;;;-0.90;57.94
19576;BME280;41589;51.196;7.074;2022-12-18T00:41:18;100112.69;;;-0.79;57.96
19576;BME280;41589;51.196;7.074;2022-12-18T00:46:38;100103.53;;;-0.83;57.69
19576;BME280;41589;51.196;7.074;2022-12-18T00:51:39;100094.25;;;-0.91;58.04
19576;BME280;41589;51.196;7.074;2022-12-18T00:56:39;100092.66;;;-0.92;57.77
19576;BME280;41589;51.196;7.074;2022-12-18T01:01:39;100099.06;;;-0.88;57.80
19576;BME280;41589;51.196;7.074;2022-12-18T01:06:40;100102.81;;;-0.96;57.74
19576;BME280;41589;51.196;7.074;2022-12-18T01:11:40;100106.94;;;-0.90;57.79
19576;BME280;41589;51.196;7.074;2022-12-18T01:16:41;100083.56;;;-0.93;57.76
19576;BME280;41589;51.196;7.074;2022-12-18T01:21:41;100098.34;;;-0.85;57.86
19576;BME280;41589;51.196;7.074;2022-12-18T01:26:42;100088.00;;;-0.88;58.08
19576;BME280;41589;51.196;7.074;2022-12-18T01:31:42;100104.38;;;-0.79;57.46
19576;BME280;41589;51.196;7.074;2022-12-18T01:36:43;100101.47;;;-0.87;57.87
19576;BME280;41589;51.196;7.074;2022-12-18T01:41:44;100096.72;;;-0.86;58.14
19576;BME280;41589;51.196;7.074;2022-12-18T01:47:03;100102.41;;;-0.79;57.74
19576;BME280;41589;51.196;7.074;2022-12-18T01:52:04;100107.16;;;-0.79;58.06
19576;BME280;41589;51.196;7.074;2022-12-18T01:57:05;100096.53;;;-0.77;57.82
19576;BME280;41589;51.196;7.074;2022-12-18T02:02:06;100094.50;;;-0.80;57.58
19576;BME280;41589;51.196;7.074;2022-12-18T02:12:36;100103.34;;;-0.91;58.01
19576;BME280;41589;51.196;7.074;2022-12-18T02:17:55;100104.53;;;-0.92;57.69
19576;BME280;41589;51.196;7.074;2022-12-18T02:28:23;100090.97;;;-0.97;57.80
19576;BME280;41589;51.196;7.074;2022-12-18T02:33:28;100086.34;;;-0.93;58.23
19576;BME280;41589;51.196;7.074;2022-12-18T02:38:31;100071.63;;;-0.97;57.80
19576;BME280;41589;51.196;7.074;2022-12-18T02:43:39;100072.88;;;-0.94;57.89
19576;BME280;41589;51.196;7.074;2022-12-18T02:48:41;100054.91;;;-1.04;57.83
19576;BME280;41589;51.196;7.074;2022-12-18T02:53:52;100060.13;;;-0.99;57.88
19576;BME280;41589;51.196;7.074;2022-12-18T02:59:00;100071.72;;;-0.93;58.22
19576;BME280;41589;51.196;7.074;2022-12-18T03:04:19;100078.41;;;-0.94;58.17
19576;BME280;41589;51.196;7.074;2022-12-18T03:09:28;100068.38;;;-0.83;58.19
19576;BME280;41589;51.196;7.074;2022-12-18T03:14:32;100056.97;;;-0.81;57.73
19576;BME280;41589;51.196;7.074;2022-12-18T03:19:34;100071.56;;;-0.81;57.73
19576;BME280;41589;51.196;7.074;2022-12-18T03:24:36;100055.16;;;-0.74;57.78
19576;BME280;41589;51.196;7.074;2022-12-18T03:29:53;100047.66;;;-0.73;58.20
19576;BME280;41589;51.196;7.074;2022-12-18T03:35:03;100046.91;;;-0.70;58.52
19576;BME280;41589;51.196;7.074;2022-12-18T03:40:07;100045.16;;;-0.59;57.60
19576;BME280;41589;51.196;7.074;2022-12-18T03:45:25;100044.16;;;-0.70;57.45
19576;BME280;41589;51.196;7.074;2022-12-18T03:50:45;100038.56;;;-0.74;58.27
19576;BME280;41589;51.196;7.074;2022-12-18T03:55:51;100045.00;;;-0.66;58.27
19576;BME280;41589;51.196;7.074;2022-12-18T04:00:55;100037.97;;;-0.64;58.34
19576;BME280;41589;51.196;7.074;2022-12-18T04:05:58;100040.56;;;-0.51;57.90
19576;BME280;41589;51.196;7.074;2022-12-18T04:11:02;100033.13;;;-0.47;57.84
19576;BME280;41589;51.196;7.074;2022-12-18T04:16:03;100026.00;;;-0.48;57.68
19576;BME280;41589;51.196;7.074;2022-12-18T04:21:03;100030.69;;;-0.52;57.97
19576;BME280;41589;51.196;7.074;2022-12-18T04:26:04;100031.97;;;-0.46;57.93
19576;BME280;41589;51.196;7.074;2022-12-18T04:31:26;100042.31;;;-0.43;57.51
19576;BME280;41589;51.196;7.074;2022-12-18T04:36:26;100037.63;;;-0.39;57.40
19576;BME280;41589;51.196;7.074;2022-12-18T04:41:28;100025.41;;;-0.38;57.64
19576;BME280;41589;51.196;7.074;2022-12-18T04:46:29;100021.50;;;-0.34;57.60
19576;BME280;41589;51.196;7.074;2022-12-18T04:51:29;100019.91;;;-0.35;57.01
19576;BME280;41589;51.196;7.074;2022-12-18T04:56:31;100012.38;;;-0.38;57.53
19576;BME280;41589;51.196;7.074;2022-12-18T05:01:31;100010.81;;;-0.35;57.37
19576;BME280;41589;51.196;7.074;2022-12-18T05:06:32;100008.94;;;-0.31;57.16
19576;BME280;41589;51.196;7.074;2022-12-18T05:11:32;100004.19;;;-0.31;56.68
19576;BME280;41589;51.196;7.074;2022-12-18T05:16:32;100008.13;;;-0.32;56.97
19576;BME280;41589;51.196;7.074;2022-12-18T05:21:33;100002.09;;;-0.37;56.17
19576;BME280;41589;51.196;7.074;2022-12-18T05:26:33;100005.75;;;-0.33;56.85
19576;BME280;41589;51.196;7.074;2022-12-18T05:31:33;100005.44;;;-0.28;57.27
19576;BME280;41589;51.196;7.074;2022-12-18T05:36:34;100012.94;;;-0.29;56.58
19576;BME280;41589;51.196;7.074;2022-12-18T05:41:34;100001.13;;;-0.26;55.95
19576;BME280;41589;51.196;7.074;2022-12-18T05:46:35;99995.03;;;-0.35;56.67
19576;BME280;41589;51.196;7.074;2022-12-18T05:51:36;100005.97;;;-0.19;56.84
19576;BME280;41589;51.196;7.074;2022-12-18T05:56:36;100016.38;;;-0.12;56.23
19576;BME280;41589;51.196;7.074;2022-12-18T06:01:37;100019.50;;;-0.14;55.97
19576;BME280;41589;51.196;7.074;2022-12-18T06:06:37;100034.47;;;-0.18;55.99
19576;BME280;41589;51.196;7.074;2022-12-18T06:11:38;100039.66;;;-0.13;55.82
19576;BME280;41589;51.196;7.074;2022-12-18T06:16:39;100045.94;;;-0.16;55.58
19576;BME280;41589;51.196;7.074;2022-12-18T06:21:39;100061.34;;;-0.19;55.84
19576;BME280;41589;51.196;7.074;2022-12-18T06:26:39;100079.69;;;-0.11;55.72
19576;BME280;41589;51.196;7.074;2022-12-18T06:31:40;100074.78;;;-0.17;55.16
19576;BME280;41589;51.196;7.074;2022-12-18T06:36:40;100078.72;;;-0.18;54.57
19576;BME280;41589;51.196;7.074;2022-12-18T06:41:40;100061.38;;;-0.15;55.01
19576;BME280;41589;51.196;7.074;2022-12-18T06:46:41;100064.47;;;-0.20;54.85
19576;BME280;41589;51.196;7.074;2022-12-18T06:51:41;100058.06;;;-0.24;54.71
19576;BME280;41589;51.196;7.074;2022-12-18T06:56:42;100037.50;;;-0.23;54.89
19576;BME280;41589;51.196;7.074;2022-12-18T07:01:42;100035.84;;;-0.28;54.76
19576;BME280;41589;51.196;7.074;2022-12-18T07:06:42;100029.22;;;-0.23;54.90
19576;BME280;41589;51.196;7.074;2022-12-18T07:11:43;100033.16;;;-0.24;54.84
19576;BME280;41589;51.196;7.074;2022-12-18T07:16:43;100025.22;;;-0.26;54.20
19576;BME280;41589;51.196;7.074;2022-12-18T07:21:43;100020.47;;;-0.26;54.45
19576;BME280;41589;51.196;7.074;2022-12-18T07:26:47;100029.72;;;-0.18;54.26
19576;BME280;41589;51.196;7.074;2022-12-18T07:31:47;100020.91;;;-0.23;54.33
19576;BME280;41589;51.196;7.074;2022-12-18T07:36:47;100016.25;;;-0.19;54.36
19576;BME280;41589;51.196;7.074;2022-12-18T07:41:48;100006.47;;;-0.13;53.62
19576;BME280;41589;51.196;7.074;2022-12-18T07:47:08;100006.91;;;-0.11;53.74
19576;BME280;41589;51.196;7.074;2022-12-18T07:52:08;99996.50;;;-0.18;53.87
19576;BME280;41589;51.196;7.074;2022-12-18T07:57:09;99999.03;;;-0.09;53.13
19576;BME280;41589;51.196;7.074;2022-12-18T08:02:10;100002.22;;;-0.07;53.37
19576;BME280;41589;51.196;7.074;2022-12-18T08:07:10;100001.91;;;-0.02;53.62
19576;BME280;41589;51.196;7.074;2022-12-18T08:12:10;99998.50;;;0.08;53.55
19576;BME280;41589;51.196;7.074;2022-12-18T08:17:11;100007.31;;;0.14;53.22
19576;BME280;41589;51.196;7.074;2022-12-18T08:22:11;99987.97;;;0.17;52.99
19576;BME280;41589;51.196;7.074;2022-12-18T08:27:11;99983.25;;;0.18;53.18
19576;BME280;41589;51.196;7.074;2022-12-18T08:32:12;99968.19;;;0.15;52.77
19576;BME280;41589;51.196;7.074;2022-12-18T08:37:12;99952.47;;;0.23;52.68
19576;BME280;41589;51.196;7.074;2022-12-18T08:42:12;99941.41;;;0.23;52.15
19576;BME280;41589;51.196;7.074;2022-12-18T08:47:32;99930.44;;;0.30;52.72
19576;BME280;41589;51.196;7.074;2022-12-18T08:52:32;99953.97;;;0.43;52.33
19576;BME280;41589;51.196;7.074;2022-12-18T08:57:32;99952.50;;;0.53;52.26
19576;BME280;41589;51.196;7.074;2022-12-18T09:02:33;99955.03;;;0.65;51.62
19576;BME280;41589;51.196;7.074;2022-12-18T09:07:33;99941.03;;;0.84;50.90
19576;BME280;41589;51.196;7.074;2022-12-18T09:12:33;99955.84;;;0.99;50.91
19576;BME280;41589;51.196;7.074;2022-12-18T09:17:34;99937.38;;;1.10;51.00
19576;BME280;41589;51.196;7.074;2022-12-18T09:22:34;99927.13;;;1.14;50.34
19576;BME280;41589;51.196;7.074;2022-12-18T09:27:34;99956.19;;;1.28;49.79
19576;BME280;41589;51.196;7.074;2022-12-18T09:32:35;99928.59;;;1.42;49.93
19576;BME280;41589;51.196;7.074;2022-12-18T09:37:35;99923.56;;;1.55;49.37
19576;BME280;41589;51.196;7.074;2022-12-18T09:42:36;99914.16;;;1.66;49.47
19576;BME280;41589;51.196;7.074;2022-12-18T09:47:37;99933.59;;;1.70;48.78
19576;BME280;41589;51.196;7.074;2022-12-18T09:52:43;99934.50;;;1.85;48.93
19576;BME280;41589;51.196;7.074;2022-12-18T09:57:49;99944.56;;;1.96;48.21
19576;BME280;41589;51.196;7.074;2022-12-18T10:02:53;99924.88;;;2.19;48.19
19576;BME280;41589;51.196;7.074;2022-12-18T10:13:48;99900.69;;;2.23;48.20
19576;BME280;41589;51.196;7.074;2022-12-18T10:19:21;99899.88;;;2.26;47.38
19576;BME280;41589;51.196;7.074;2022-12-18T10:24:35;99885.31;;;2.40;47.59
19576;BME280;41589;51.196;7.074;2022-12-18T10:29:39;99889.28;;;2.46;47.23
19576;BME280;41589;51.196;7.074;2022-12-18T10:34:39;99868.28;;;2.56;47.29
19576;BME280;41589;51.196;7.074;2022-12-18T10:39:40;99863.91;;;2.58;46.61
19576;BME280;41589;51.196;7.074;2022-12-18T10:44:40;99865.19;;;2.72;47.24
19576;BME280;41589;51.196;7.074;2022-12-18T10:49:51;99856.50;;;2.95;47.49
19576;BME280;41589;51.196;7.074;2022-12-18T10:54:55;99851.34;;;2.97;46.25
19576;BME280;41589;51.196;7.074;2022-12-18T11:00:30;99846.56;;;2.97;45.83
19576;BME280;41589;51.196;7.074;2022-12-18T11:05:33;99845.81;;;3.14;46.74
19576;BME280;41589;51.196;7.074;2022-12-18T11:10:38;99821.97;;;3.10;46.09
19576;BME280;41589;51.196;7.074;2022-12-18T11:15:41;99820.75;;;2.93;46.14
19576;BME280;41589;51.196;7.074;2022-12-18T11:20:41;99836.28;;;3.05;46.65
19576;BME280;41589;51.196;7.074;2022-12-18T11:25:51;99845.44;;;3.12;46.45
19576;BME280;41589;51.196;7.074;2022-12-18T11:31:24;99839.84;;;3.19;46.42
19576;BME280;41589;51.196;7.074;2022-12-18T11:36:29;99830.72;;;3.26;46.21
19576;BME280;41589;51.196;7.074;2022-12-18T11:41:48;99799.72;;;3.28;46.48
19576;BME280;41589;51.196;7.074;2022-12-18T11:52:21;99775.88;;;3.16;46.20
19576;BME280;41589;51.196;7.074;2022-12-18T11:57:37;99773.88;;;3.20;46.40
19576;BME280;41589;51.196;7.074;2022-12-18T12:02:55;99774.28;;;3.26;46.38
19576;BME280;41589;51.196;7.074;2022-12-18T12:13:51;99775.09;;;3.26;46.70
19576;BME280;41589;51.196;7.074;2022-12-18T12:19:00;99783.84;;;3.35;46.70
19576;BME280;41589;51.196;7.074;2022-12-18T12:34:51;99768.72;;;3.40;46.40
19576;BME280;41589;51.196;7.074;2022-12-18T12:39:54;99751.22;;;3.29;46.78
19576;BME280;41589;51.196;7.074;2022-12-18T12:44:55;99752.81;;;3.33;46.80
19576;BME280;41589;51.196;7.074;2022-12-18T12:50:01;99753.63;;;3.16;47.39
19576;BME280;41589;51.196;7.074;2022-12-18T12:55:05;99748.03;;;3.19;47.13
19576;BME280;41589;51.196;7.074;2022-12-18T13:00:16;99750.81;;;3.09;47.45
19576;BME280;41589;51.196;7.074;2022-12-18T13:10:31;99760.38;;;3.08;47.94
19576;BME280;41589;51.196;7.074;2022-12-18T13:15:43;99754.00;;;3.00;47.39
19576;BME280;41589;51.196;7.074;2022-12-18T13:20:47;99766.31;;;2.92;48.08
19576;BME280;41589;51.196;7.074;2022-12-18T13:31:09;99766.28;;;2.74;48.50
19576;BME280;41589;51.196;7.074;2022-12-18T13:36:26;99752.00;;;2.72;48.26
19576;BME280;41589;51.196;7.074;2022-12-18T13:41:27;99742.84;;;2.64;48.74
19576;BME280;41589;51.196;7.074;2022-12-18T13:46:42;99736.47;;;2.57;48.31
19576;BME280;41589;51.196;7.074;2022-12-18T13:51:46;99715.44;;;2.52;49.04
19576;BME280;41589;51.196;7.074;2022-12-18T13:56:48;99720.97;;;2.45;49.04
19576;BME280;41589;51.196;7.074;2022-12-18T14:01:50;99711.81;;;2.34;49.15
19576;BME280;41589;51.196;7.074;2022-12-18T14:06:57;99714.19;;;2.32;49.44
19576;BME280;41589;51.196;7.074;2022-12-18T14:11:59;99699.09;;;2.33;49.39
19576;BME280;41589;51.196;7.074;2022-12-18T14:17:19;99695.94;;;2.38;49.12
19576;BME280;41589;51.196;7.074;2022-12-18T14:22:21;99684.41;;;2.36;48.81
19576;BME280;41589;51.196;7.074;2022-12-18T14:27:27;99674.09;;;2.29;48.60
19576;BME280;41589;51.196;7.074;2022-12-18T14:32:27;99668.50;;;2.19;48.78
19576;BME280;41589;51.196;7.074;2022-12-18T14:37:28;99682.81;;;2.21;48.89
19576;BME280;41589;51.196;7.074;2022-12-18T14:42:28;99661.75;;;2.09;49.10
19576;BME280;41589;51.196;7.074;2022-12-18T14:47:29;99669.28;;;2.09;48.58
19576;BME280;41589;51.196;7.074;2022-12-18T14:52:31;99679.97;;;2.03;48.60
19576;BME280;41589;51.196;7.074;2022-12-18T14:57:36;99669.66;;;2.03;49.17
19576;BME280;41589;51.196;7.074;2022-12-18T15:02:38;99664.84;;;1.86;48.79
19576;BME280;41589;51.196;7.074;2022-12-18T15:07:50;99658.84;;;1.77;49.69
19576;BME280;41589;51.196;7.074;2022-12-18T15:13:20;99658.06;;;1.76;49.12
19576;BME280;41589;51.196;7.074;2022-12-18T15:18:32;99642.16;;;1.66;49.52
19576;BME280;41589;51.196;7.074;2022-12-18T15:28:56;99639.69;;;1.51;49.72
19576;BME280;41589;51.196;7.074;2022-12-18T15:34:10;99632.56;;;1.46;49.18
19576;BME280;41589;51.196;7.074;2022-12-18T15:39:12;99620.66;;;1.49;49.82
19576;BME280;41589;51.196;7.074;2022-12-18T15:44:22;99632.91;;;1.37;49.82
19576;BME280;41589;51.196;7.074;2022-12-18T15:49:23;99641.28;;;1.52;49.70
19576;BME280;41589;51.196;7.074;2022-12-18T15:54:23;99631.72;;;1.42;50.02
19576;BME280;41589;51.196;7.074;2022-12-18T15:59:42;99626.16;;;1.38;50.00
19576;BME280;41589;51.196;7.074;2022-12-18T16:04:43;99632.50;;;1.35;50.22
19576;BME280;41589;51.196;7.074;2022-12-18T16:09:43;99632.94;;;1.44;50.31
19576;BME280;41589;51.196;7.074;2022-12-18T16:14:44;99630.56;;;1.46;50.90
19576;BME280;41589;51.196;7.074;2022-12-18T16:19:45;99631.72;;;1.42;50.99
19576;BME280;41589;51.196;7.074;2022-12-18T16:24:45;99638.84;;;1.36;51.21
19576;BME280;41589;51.196;7.074;2022-12-18T16:29:46;99630.47;;;1.32;51.16
19576;BME280;41589;51.196;7.074;2022-12-18T16:34:46;99631.66;;;1.31;51.61
19576;BME280;41589;51.196;7.074;2022-12-18T16:39:47;99648.34;;;1.38;51.98
19576;BME280;41589;51.196;7.074;2022-12-18T16:44:48;99638.91;;;1.46;52.11
19576;BME280;41589;51.196;7.074;2022-12-18T16:49:49;99638.84;;;1.36;52.31
19576;BME280;41589;51.196;7.074;2022-12-18T16:54:51;99624.53;;;1.30;52.47
19576;BME280;41589;51.196;7.074;2022-12-18T16:59:52;99627.34;;;1.34;53.31
19576;BME280;41589;51.196;7.074;2022-12-18T17:04:54;99626.16;;;1.38;53.78
19576;BME280;41589;51.196;7.074;2022-12-18T17:09:56;99617.41;;;1.29;53.91
19576;BME280;41589;51.196;7.074;2022-12-18T17:14:56;99607.09;;;1.33;53.78
19576;BME280;41589;51.196;7.074;2022-12-18T17:19:58;99604.72;;;1.28;54.13
19576;BME280;41589;51.196;7.074;2022-12-18T17:24:59;99608.22;;;1.14;54.35
19576;BME280;41589;51.196;7.074;2022-12-18T17:29:59;99607.03;;;1.19;54.83
19576;BME280;41589;51.196;7.074;2022-12-18T17:35:00;99604.31;;;1.30;54.68
19576;BME280;41589;51.196;7.074;2022-12-18T17:40:00;99611.44;;;1.24;54.42
19576;BME280;41589;51.196;7.074;2022-12-18T17:45:00;99631.59;;;1.17;55.09
19576;BME280;41589;51.196;7.074;2022-12-18T17:50:01;99596.69;;;1.12;55.59
19576;BME280;41589;51.196;7.074;2022-12-18T17:55:01;99598.66;;;1.05;55.11
19576;BME280;41589;51.196;7.074;2022-12-18T18:00:03;99605.78;;;1.06;55.19
19576;BME280;41589;51.196;7.074;2022-12-18T18:05:09;99612.13;;;1.10;55.61
19576;BME280;41589;51.196;7.074;2022-12-18T18:10:11;99625.19;;;1.06;55.26
19576;BME280;41589;51.196;7.074;2022-12-18T18:15:12;99627.09;;;0.95;55.97
19576;BME280;41589;51.196;7.074;2022-12-18T18:20:12;99632.28;;;1.00;56.26
19576;BME280;41589;51.196;7.074;2022-12-18T18:25:15;99619.97;;;0.97;55.96
19576;BME280;41589;51.196;7.074;2022-12-18T18:30:16;99613.66;;;0.97;56.44
19576;BME280;41589;51.196;7.074;2022-12-18T18:35:16;99607.63;;;0.87;56.61
19576;BME280;41589;51.196;7.074;2022-12-18T18:40:16;99634.56;;;0.87;56.46
19576;BME280;41589;51.196;7.074;2022-12-18T18:45:19;99624.66;;;0.86;56.34
19576;BME280;41589;51.196;7.074;2022-12-18T18:50:19;99635.75;;;0.89;56.32
19576;BME280;41589;51.196;7.074;2022-12-18T18:55:19;99626.69;;;0.93;56.51
19576;BME280;41589;51.196;7.074;2022-12-18T19:00:20;99627.91;;;0.95;57.33
19576;BME280;41589;51.196;7.074;2022-12-18T19:05:20;99621.59;;;1.02;56.44
19576;BME280;41589;51.196;7.074;2022-12-18T19:10:22;99629.88;;;0.95;56.69
19576;BME280;41589;51.196;7.074;2022-12-18T19:15:22;99616.41;;;0.93;56.77
19576;BME280;41589;51.196;7.074;2022-12-18T19:20:22;99603.69;;;0.88;56.92
19576;BME280;41589;51.196;7.074;2022-12-18T19:25:24;99611.59;;;0.86;56.74
19576;BME280;41589;51.196;7.074;2022-12-18T19:30:25;99617.47;;;0.78;57.17
19576;BME280;41589;51.196;7.074;2022-12-18T19:35:28;99598.47;;;0.80;56.96
19576;BME280;41589;51.196;7.074;2022-12-18T19:40:28;99604.38;;;0.71;57.03
19576;BME280;41589;51.196;7.074;2022-12-18T19:45:29;99609.63;;;0.87;57.28
19576;BME280;41589;51.196;7.074;2022-12-18T19:50:29;99602.50;;;0.86;56.73
19576;BME280;41589;51.196;7.074;2022-12-18T19:55:30;99592.91;;;0.76;56.99
19576;BME280;41589;51.196;7.074;2022-12-18T20:00:30;99586.59;;;0.79;56.84
19576;BME280;41589;51.196;7.074;2022-12-18T20:05:30;99594.56;;;0.88;56.50
19576;BME280;41589;51.196;7.074;2022-12-18T20:10:31;99603.28;;;0.86;56.42
19576;BME280;41589;51.196;7.074;2022-12-18T20:15:31;99610.47;;;0.95;56.37
19576;BME280;41589;51.196;7.074;2022-12-18T20:20:31;99617.59;;;0.92;56.40
19576;BME280;41589;51.196;7.074;2022-12-18T20:25:32;99623.88;;;0.85;56.95
19576;BME280;41589;51.196;7.074;2022-12-18T20:30:32;99604.94;;;0.95;57.21
19576;BME280;41589;51.196;7.074;2022-12-18T20:35:33;99610.41;;;0.87;57.52
19576;BME280;41589;51.196;7.074;2022-12-18T20:40:33;99612.88;;;1.00;57.65
19576;BME280;41589;51.196;7.074;2022-12-18T20:45:34;99617.59;;;0.96;57.66
19576;BME280;41589;51.196;7.074;2022-12-18T20:50:34;99606.91;;;0.94;57.51
19576;BME280;41589;51.196;7.074;2022-12-18T20:55:40;99608.09;;;0.97;57.86
19576;BME280;41589;51.196;7.074;2022-12-18T21:00:41;99625.13;;;0.99;58.14
19576;BME280;41589;51.196;7.074;2022-12-18T21:05:41;99625.59;;;1.11;57.72
19576;BME280;41589;51.196;7.074;2022-12-18T21:10:41;99637.94;;;1.14;57.34
19576;BME280;41589;51.196;7.074;2022-12-18T21:15:42;99617.78;;;1.24;57.51
19576;BME280;41589;51.196;7.074;2022-12-18T21:20:42;99624.94;;;1.29;57.22
19576;BME280;41589;51.196;7.074;2022-12-18T21:25:43;99618.13;;;1.19;57.67
19576;BME280;41589;51.196;7.074;2022-12-18T21:30:43;99615.03;;;1.31;57.54
19576;BME280;41589;51.196;7.074;2022-12-18T21:35:43;99600.41;;;1.38;57.30
19576;BME280;41589;51.196;7.074;2022-12-18T21:40:44;99619.81;;;1.38;57.38
19576;BME280;41589;51.196;7.074;2022-12-18T21:45:44;99605.97;;;1.41;57.75
19576;BME280;41589;51.196;7.074;2022-12-18T21:50:44;99620.72;;;1.56;57.99
19576;BME280;41589;51.196;7.074;2022-12-18T21:55:45;99611.16;;;1.54;58.48
19576;BME280;41589;51.196;7.074;2022-12-18T22:00:45;99587.81;;;1.58;58.87
19576;BME280;41589;51.196;7.074;2022-12-18T22:05:46;99579.44;;;1.51;58.97
19576;BME280;41589;51.196;7.074;2022-12-18T22:10:46;99571.16;;;1.58;59.70
19576;BME280;41589;51.196;7.074;2022-12-18T22:15:47;99564.03;;;1.57;60.07
19576;BME280;41589;51.196;7.074;2022-12-18T22:20:47;99562.00;;;1.54;60.27
19576;BME280;41589;51.196;7.074;2022-12-18T22:25:47;99554.50;;;1.58;60.88
19576;BME280;41589;51.196;7.074;2022-12-18T22:30:48;99558.09;;;1.73;61.66
19576;BME280;41589;51.196;7.074;2022-12-18T22:35:48;99545.03;;;1.70;62.25
19576;BME280;41589;51.196;7.074;2022-12-18T22:40:48;99536.69;;;1.70;61.96
19576;BME280;41589;51.196;7.074;2022-12-18T22:45:49;99528.75;;;1.72;62.26
19576;BME280;41589;51.196;7.074;2022-12-18T22:50:49;99533.94;;;1.77;63.01
19576;BME280;41589;51.196;7.074;2022-12-18T22:55:49;99523.25;;;1.79;63.16
19576;BME280;41589;51.196;7.074;2022-12-18T23:00:50;99520.47;;;1.79;63.64
19576;BME280;41589;51.196;7.074;2022-12-18T23:05:50;99530.38;;;1.84;64.26
19576;BME280;41589;51.196;7.074;2022-12-18T23:10:51;99520.84;;;1.85;65.00
19576;BME280;41589;51.196;7.074;2022-12-18T23:15:52;99489.94;;;1.93;64.61
19576;BME280;41589;51.196;7.074;2022-12-18T23:20:52;99496.66;;;1.96;65.83
19576;BME280;41589;51.196;7.074;2022-12-18T23:25:59;99493.50;;;2.04;65.35
19576;BME280;41589;51.196;7.074;2022-12-18T23:31:09;99485.19;;;2.08;65.93
19576;BME280;41589;51.196;7.074;2022-12-18T23:36:12;99481.19;;;2.16;65.69
19576;BME280;41589;51.196;7.074;2022-12-18T23:41:14;99457.81;;;2.21;66.74
19576;BME280;41589;51.196;7.074;2022-12-18T23:46:22;99453.03;;;2.14;66.59
19576;BME280;41589;51.196;7.074;2022-12-18T23:51:23;99442.34;;;2.20;67.24
19576;BME280;41589;51.196;7.074;2022-12-18T23:56:26;99456.59;;;2.15;67.23
